sensor_id;sensor_type;location;lat;lon;timestamp;P1;durP1;ratioP1;P2;durP2;ratioP2
40256;SDS011;25977;45.462;9.210;2022-10-22T00:01:09;15.52;;;11.88;;
40256;SDS011;25977;45.462;9.210;2022-10-22T00:03:36;17.55;;;10.90;;
40256;SDS011;25977;45.462;9.210;2022-10-22T00:06:02;20.05;;;11.77;;
40256;SDS011;25977;45.462;9.210;2022-10-22T00:08:28;16.83;;;11.60;;
40256;SDS011;25977;45.462;9.210;2022-10-22T00:10:53;20.73;;;11.65;;
40256;SDS011;25977;45.462;9.210;2022-10-22T00:13:20;17.15;;;12.02;;
40256;SDS011;25977;45.462;9.210;2022-10-22T00:15:46;18.45;;;11.73;;
40256;SDS011;25977;45.462;9.210;2022-10-22T00:18:12;18.95;;;11.90;;
40256;SDS011;25977;45.462;9.210;2022-10-22T00:20:37;21.45;;;12.35;;
40256;SDS011;25977;45.462;9.210;2022-10-22T00:23:03;16.05;;;12.68;;
40256;SDS011;25977;45.462;9.210;2022-10-22T00:25:29;15.30;;;11.80;;
40256;SDS011;25977;45.462;9.210;2022-10-22T00:27:55;21.17;;;11.27;;
40256;SDS011;25977;45.462;9.210;2022-10-22T00:30:21;18.80;;;11.85;;
40256;SDS011;25977;45.462;9.210;2022-10-22T00:32:46;17.70;;;10.93;;
40256;SDS011;25977;45.462;9.210;2022-10-22T00:35:12;21.08;;;11.73;;
40256;SDS011;25977;45.462;9.210;2022-10-22T00:37:38;35.10;;;13.07;;
40256;SDS011;25977;45.462;9.210;2022-10-22T00:40:03;19.45;;;11.88;;
40256;SDS011;25977;45.462;9.210;2022-10-22T00:42:29;17.95;;;11.50;;
40256;SDS011;25977;45.462;9.210;2022-10-22T00:47:27;17.25;;;11.68;;
40256;SDS011;25977;45.462;9.210;2022-10-22T00:49:56;19.42;;;12.07;;
40256;SDS011;25977;45.462;9.210;2022-10-22T00:52:24;14.48;;;12.00;;
40256;SDS011;25977;45.462;9.210;2022-10-22T00:54:50;14.23;;;10.85;;
40256;SDS011;25977;45.462;9.210;2022-10-22T00:57:17;15.77;;;11.32;;
40256;SDS011;25977;45.462;9.210;2022-10-22T00:59:44;18.67;;;11.95;;
40256;SDS011;25977;45.462;9.210;2022-10-22T01:02:10;17.70;;;11.88;;
40256;SDS011;25977;45.462;9.210;2022-10-22T01:04:36;19.08;;;11.25;;
40256;SDS011;25977;45.462;9.210;2022-10-22T01:07:02;14.52;;;10.88;;
40256;SDS011;25977;45.462;9.210;2022-10-22T01:09:33;12.85;;;10.23;;
40256;SDS011;25977;45.462;9.210;2022-10-22T01:12:11;22.00;;;13.10;;
40256;SDS011;25977;45.462;9.210;2022-10-22T01:23:02;15.55;;;11.10;;
40256;SDS011;25977;45.462;9.210;2022-10-22T01:28:39;24.50;;;11.43;;
40256;SDS011;25977;45.462;9.210;2022-10-22T01:31:19;15.40;;;11.55;;
40256;SDS011;25977;45.462;9.210;2022-10-22T01:33:47;16.08;;;10.98;;
40256;SDS011;25977;45.462;9.210;2022-10-22T01:36:15;15.88;;;11.10;;
40256;SDS011;25977;45.462;9.210;2022-10-22T01:38:42;15.63;;;10.60;;
40256;SDS011;25977;45.462;9.210;2022-10-22T01:41:09;17.77;;;10.93;;
40256;SDS011;25977;45.462;9.210;2022-10-22T01:43:35;16.60;;;9.90;;
40256;SDS011;25977;45.462;9.210;2022-10-22T01:46:01;16.33;;;10.82;;
40256;SDS011;25977;45.462;9.210;2022-10-22T01:57:13;19.13;;;10.90;;
40256;SDS011;25977;45.462;9.210;2022-10-22T02:02:41;16.23;;;10.38;;
40256;SDS011;25977;45.462;9.210;2022-10-22T02:05:15;18.80;;;10.43;;
40256;SDS011;25977;45.462;9.210;2022-10-22T02:08:13;14.07;;;10.65;;
40256;SDS011;25977;45.462;9.210;2022-10-22T02:10:42;14.10;;;10.80;;
40256;SDS011;25977;45.462;9.210;2022-10-22T02:13:12;22.55;;;11.07;;
40256;SDS011;25977;45.462;9.210;2022-10-22T02:15:41;18.60;;;11.13;;
40256;SDS011;25977;45.462;9.210;2022-10-22T02:18:10;18.58;;;11.30;;
40256;SDS011;25977;45.462;9.210;2022-10-22T02:20:36;15.15;;;11.57;;
40256;SDS011;25977;45.462;9.210;2022-10-22T02:23:05;13.68;;;10.57;;
40256;SDS011;25977;45.462;9.210;2022-10-22T02:25:33;16.92;;;10.85;;
40256;SDS011;25977;45.462;9.210;2022-10-22T02:28:12;18.80;;;11.63;;
40256;SDS011;25977;45.462;9.210;2022-10-22T02:30:39;17.65;;;10.27;;
40256;SDS011;25977;45.462;9.210;2022-10-22T02:33:51;12.43;;;10.50;;
40256;SDS011;25977;45.462;9.210;2022-10-22T02:38:31;19.42;;;9.98;;
40256;SDS011;25977;45.462;9.210;2022-10-22T02:40:59;28.63;;;10.45;;
40256;SDS011;25977;45.462;9.210;2022-10-22T02:43:25;14.45;;;9.93;;
40256;SDS011;25977;45.462;9.210;2022-10-22T02:45:53;15.05;;;10.18;;
40256;SDS011;25977;45.462;9.210;2022-10-22T02:48:19;13.95;;;10.10;;
40256;SDS011;25977;45.462;9.210;2022-10-22T02:50:44;16.63;;;11.40;;
40256;SDS011;25977;45.462;9.210;2022-10-22T02:53:10;13.98;;;9.65;;
40256;SDS011;25977;45.462;9.210;2022-10-22T02:55:36;14.90;;;10.52;;
40256;SDS011;25977;45.462;9.210;2022-10-22T02:58:02;18.23;;;10.45;;
40256;SDS011;25977;45.462;9.210;2022-10-22T03:00:28;15.70;;;9.60;;
40256;SDS011;25977;45.462;9.210;2022-10-22T03:02:53;12.57;;;10.48;;
40256;SDS011;25977;45.462;9.210;2022-10-22T03:05:19;15.40;;;10.80;;
40256;SDS011;25977;45.462;9.210;2022-10-22T03:07:45;19.90;;;10.75;;
40256;SDS011;25977;45.462;9.210;2022-10-22T03:10:11;17.58;;;9.98;;
40256;SDS011;25977;45.462;9.210;2022-10-22T03:12:36;15.27;;;9.90;;
40256;SDS011;25977;45.462;9.210;2022-10-22T03:15:03;12.18;;;10.15;;
40256;SDS011;25977;45.462;9.210;2022-10-22T03:17:29;13.02;;;9.75;;
40256;SDS011;25977;45.462;9.210;2022-10-22T03:19:54;14.45;;;10.65;;
40256;SDS011;25977;45.462;9.210;2022-10-22T03:22:29;12.35;;;9.88;;
40256;SDS011;25977;45.462;9.210;2022-10-22T03:24:59;14.48;;;10.25;;
40256;SDS011;25977;45.462;9.210;2022-10-22T03:27:32;16.48;;;9.63;;
40256;SDS011;25977;45.462;9.210;2022-10-22T03:30:03;24.15;;;10.60;;
40256;SDS011;25977;45.462;9.210;2022-10-22T03:32:30;17.92;;;10.98;;
40256;SDS011;25977;45.462;9.210;2022-10-22T03:34:55;15.75;;;10.05;;
40256;SDS011;25977;45.462;9.210;2022-10-22T03:37:21;15.48;;;10.13;;
40256;SDS011;25977;45.462;9.210;2022-10-22T03:39:48;14.90;;;11.40;;
40256;SDS011;25977;45.462;9.210;2022-10-22T03:42:14;11.75;;;9.63;;
40256;SDS011;25977;45.462;9.210;2022-10-22T03:44:41;15.13;;;9.95;;
40256;SDS011;25977;45.462;9.210;2022-10-22T03:47:08;16.58;;;11.18;;
40256;SDS011;25977;45.462;9.210;2022-10-22T03:49:33;15.38;;;9.95;;
40256;SDS011;25977;45.462;9.210;2022-10-22T03:52:09;19.98;;;10.90;;
40256;SDS011;25977;45.462;9.210;2022-10-22T03:54:36;17.65;;;10.38;;
40256;SDS011;25977;45.462;9.210;2022-10-22T03:57:03;17.30;;;11.57;;
40256;SDS011;25977;45.462;9.210;2022-10-22T03:59:40;13.65;;;9.82;;
40256;SDS011;25977;45.462;9.210;2022-10-22T04:02:08;19.10;;;11.02;;
40256;SDS011;25977;45.462;9.210;2022-10-22T04:04:35;12.15;;;10.15;;
40256;SDS011;25977;45.462;9.210;2022-10-22T04:07:01;17.92;;;10.85;;
40256;SDS011;25977;45.462;9.210;2022-10-22T04:09:31;21.48;;;11.40;;
40256;SDS011;25977;45.462;9.210;2022-10-22T04:11:58;14.30;;;11.18;;
40256;SDS011;25977;45.462;9.210;2022-10-22T04:14:24;16.00;;;9.85;;
40256;SDS011;25977;45.462;9.210;2022-10-22T04:16:49;20.25;;;10.02;;
40256;SDS011;25977;45.462;9.210;2022-10-22T04:19:15;14.45;;;10.88;;
40256;SDS011;25977;45.462;9.210;2022-10-22T04:21:41;18.65;;;10.48;;
40256;SDS011;25977;45.462;9.210;2022-10-22T04:24:06;17.65;;;10.43;;
40256;SDS011;25977;45.462;9.210;2022-10-22T04:26:32;14.82;;;11.23;;
40256;SDS011;25977;45.462;9.210;2022-10-22T04:28:58;14.80;;;10.15;;
40256;SDS011;25977;45.462;9.210;2022-10-22T04:31:24;16.58;;;11.25;;
40256;SDS011;25977;45.462;9.210;2022-10-22T04:33:53;18.52;;;10.38;;
40256;SDS011;25977;45.462;9.210;2022-10-22T04:36:21;14.13;;;10.63;;
40256;SDS011;25977;45.462;9.210;2022-10-22T04:38:50;15.40;;;10.68;;
40256;SDS011;25977;45.462;9.210;2022-10-22T04:41:18;15.02;;;9.75;;
40256;SDS011;25977;45.462;9.210;2022-10-22T04:43:49;16.40;;;9.77;;
40256;SDS011;25977;45.462;9.210;2022-10-22T04:46:15;16.48;;;10.32;;
40256;SDS011;25977;45.462;9.210;2022-10-22T04:48:42;16.85;;;11.27;;
40256;SDS011;25977;45.462;9.210;2022-10-22T04:51:13;18.63;;;11.68;;
40256;SDS011;25977;45.462;9.210;2022-10-22T04:53:40;16.13;;;10.90;;
40256;SDS011;25977;45.462;9.210;2022-10-22T04:56:07;18.17;;;11.38;;
40256;SDS011;25977;45.462;9.210;2022-10-22T04:58:35;17.70;;;11.82;;
40256;SDS011;25977;45.462;9.210;2022-10-22T05:01:07;14.77;;;10.90;;
40256;SDS011;25977;45.462;9.210;2022-10-22T05:03:34;14.40;;;10.82;;
40256;SDS011;25977;45.462;9.210;2022-10-22T05:06:00;13.05;;;10.00;;
40256;SDS011;25977;45.462;9.210;2022-10-22T05:08:26;16.70;;;10.70;;
40256;SDS011;25977;45.462;9.210;2022-10-22T05:10:52;16.38;;;9.77;;
40256;SDS011;25977;45.462;9.210;2022-10-22T05:13:17;14.52;;;11.05;;
40256;SDS011;25977;45.462;9.210;2022-10-22T05:15:43;17.15;;;10.70;;
40256;SDS011;25977;45.462;9.210;2022-10-22T05:18:09;15.32;;;10.07;;
40256;SDS011;25977;45.462;9.210;2022-10-22T05:20:37;20.92;;;10.05;;
40256;SDS011;25977;45.462;9.210;2022-10-22T05:23:06;20.58;;;9.93;;
40256;SDS011;25977;45.462;9.210;2022-10-22T05:25:36;16.05;;;10.68;;
40256;SDS011;25977;45.462;9.210;2022-10-22T05:28:02;13.73;;;10.25;;
40256;SDS011;25977;45.462;9.210;2022-10-22T05:30:28;16.23;;;10.48;;
40256;SDS011;25977;45.462;9.210;2022-10-22T05:32:54;17.83;;;10.60;;
40256;SDS011;25977;45.462;9.210;2022-10-22T05:35:20;16.17;;;10.10;;
40256;SDS011;25977;45.462;9.210;2022-10-22T05:37:46;16.95;;;10.52;;
40256;SDS011;25977;45.462;9.210;2022-10-22T05:40:11;17.20;;;11.73;;
40256;SDS011;25977;45.462;9.210;2022-10-22T05:42:37;15.95;;;10.82;;
40256;SDS011;25977;45.462;9.210;2022-10-22T05:45:03;20.67;;;11.20;;
40256;SDS011;25977;45.462;9.210;2022-10-22T05:47:29;15.43;;;11.10;;
40256;SDS011;25977;45.462;9.210;2022-10-22T05:49:55;18.05;;;11.07;;
40256;SDS011;25977;45.462;9.210;2022-10-22T05:52:23;16.58;;;10.80;;
40256;SDS011;25977;45.462;9.210;2022-10-22T05:54:49;17.55;;;10.55;;
40256;SDS011;25977;45.462;9.210;2022-10-22T05:57:15;20.00;;;10.85;;
40256;SDS011;25977;45.462;9.210;2022-10-22T05:59:40;14.48;;;10.77;;
40256;SDS011;25977;45.462;9.210;2022-10-22T06:02:07;15.15;;;10.60;;
40256;SDS011;25977;45.462;9.210;2022-10-22T06:04:33;16.23;;;11.35;;
40256;SDS011;25977;45.462;9.210;2022-10-22T06:06:59;16.40;;;10.85;;
40256;SDS011;25977;45.462;9.210;2022-10-22T06:09:27;18.10;;;10.10;;
40256;SDS011;25977;45.462;9.210;2022-10-22T06:11:55;26.83;;;12.35;;
40256;SDS011;25977;45.462;9.210;2022-10-22T06:14:22;19.00;;;11.25;;
40256;SDS011;25977;45.462;9.210;2022-10-22T06:16:49;18.60;;;11.43;;
40256;SDS011;25977;45.462;9.210;2022-10-22T06:19:16;20.20;;;11.02;;
40256;SDS011;25977;45.462;9.210;2022-10-22T06:21:43;17.25;;;10.45;;
40256;SDS011;25977;45.462;9.210;2022-10-22T06:24:10;13.90;;;10.52;;
40256;SDS011;25977;45.462;9.210;2022-10-22T06:26:36;14.55;;;11.45;;
40256;SDS011;25977;45.462;9.210;2022-10-22T06:29:02;20.58;;;11.20;;
40256;SDS011;25977;45.462;9.210;2022-10-22T06:31:29;18.67;;;11.05;;
40256;SDS011;25977;45.462;9.210;2022-10-22T06:34:04;18.20;;;11.40;;
40256;SDS011;25977;45.462;9.210;2022-10-22T06:36:31;17.63;;;10.30;;
40256;SDS011;25977;45.462;9.210;2022-10-22T06:38:57;14.35;;;10.80;;
40256;SDS011;25977;45.462;9.210;2022-10-22T06:41:23;16.20;;;10.23;;
40256;SDS011;25977;45.462;9.210;2022-10-22T06:43:49;25.25;;;11.23;;
40256;SDS011;25977;45.462;9.210;2022-10-22T06:46:16;14.15;;;10.60;;
40256;SDS011;25977;45.462;9.210;2022-10-22T06:48:47;20.58;;;10.98;;
40256;SDS011;25977;45.462;9.210;2022-10-22T06:51:14;18.07;;;10.67;;
40256;SDS011;25977;45.462;9.210;2022-10-22T06:53:40;15.32;;;10.48;;
40256;SDS011;25977;45.462;9.210;2022-10-22T06:58:33;16.20;;;9.80;;
40256;SDS011;25977;45.462;9.210;2022-10-22T07:01:02;11.63;;;10.30;;
40256;SDS011;25977;45.462;9.210;2022-10-22T07:03:39;21.67;;;10.05;;
40256;SDS011;25977;45.462;9.210;2022-10-22T07:06:08;16.05;;;10.30;;
40256;SDS011;25977;45.462;9.210;2022-10-22T07:08:38;15.35;;;10.32;;
40256;SDS011;25977;45.462;9.210;2022-10-22T07:11:05;17.27;;;9.50;;
40256;SDS011;25977;45.462;9.210;2022-10-22T07:13:31;14.00;;;10.48;;
40256;SDS011;25977;45.462;9.210;2022-10-22T07:15:57;18.23;;;10.68;;
40256;SDS011;25977;45.462;9.210;2022-10-22T07:18:23;23.63;;;10.43;;
40256;SDS011;25977;45.462;9.210;2022-10-22T07:20:49;17.70;;;10.85;;
40256;SDS011;25977;45.462;9.210;2022-10-22T07:23:16;13.75;;;10.05;;
40256;SDS011;25977;45.462;9.210;2022-10-22T07:25:42;16.40;;;10.07;;
40256;SDS011;25977;45.462;9.210;2022-10-22T07:28:08;13.77;;;9.75;;
40256;SDS011;25977;45.462;9.210;2022-10-22T07:30:35;17.80;;;10.45;;
40256;SDS011;25977;45.462;9.210;2022-10-22T07:33:01;16.38;;;10.50;;
40256;SDS011;25977;45.462;9.210;2022-10-22T07:35:27;19.20;;;10.27;;
40256;SDS011;25977;45.462;9.210;2022-10-22T07:37:53;24.63;;;12.48;;
40256;SDS011;25977;45.462;9.210;2022-10-22T07:40:19;15.45;;;9.95;;
40256;SDS011;25977;45.462;9.210;2022-10-22T07:42:45;22.27;;;12.70;;
40256;SDS011;25977;45.462;9.210;2022-10-22T07:45:10;31.35;;;13.95;;
40256;SDS011;25977;45.462;9.210;2022-10-22T07:47:36;19.95;;;11.90;;
40256;SDS011;25977;45.462;9.210;2022-10-22T07:50:02;14.18;;;10.25;;
40256;SDS011;25977;45.462;9.210;2022-10-22T07:52:29;25.33;;;11.95;;
40256;SDS011;25977;45.462;9.210;2022-10-22T07:54:54;23.85;;;10.82;;
40256;SDS011;25977;45.462;9.210;2022-10-22T07:57:20;23.60;;;12.88;;
40256;SDS011;25977;45.462;9.210;2022-10-22T07:59:46;25.55;;;12.82;;
40256;SDS011;25977;45.462;9.210;2022-10-22T08:02:11;15.57;;;9.80;;
40256;SDS011;25977;45.462;9.210;2022-10-22T08:04:37;11.80;;;9.77;;
40256;SDS011;25977;45.462;9.210;2022-10-22T08:07:03;17.08;;;10.80;;
40256;SDS011;25977;45.462;9.210;2022-10-22T08:09:29;19.00;;;10.55;;
40256;SDS011;25977;45.462;9.210;2022-10-22T08:11:55;15.70;;;11.35;;
40256;SDS011;25977;45.462;9.210;2022-10-22T08:14:21;21.13;;;10.50;;
40256;SDS011;25977;45.462;9.210;2022-10-22T08:16:47;21.30;;;11.65;;
40256;SDS011;25977;45.462;9.210;2022-10-22T08:19:13;26.73;;;10.15;;
40256;SDS011;25977;45.462;9.210;2022-10-22T08:21:43;15.30;;;10.68;;
40256;SDS011;25977;45.462;9.210;2022-10-22T08:24:10;16.27;;;12.48;;
40256;SDS011;25977;45.462;9.210;2022-10-22T08:26:36;18.52;;;12.00;;
40256;SDS011;25977;45.462;9.210;2022-10-22T08:29:01;16.92;;;10.75;;
40256;SDS011;25977;45.462;9.210;2022-10-22T08:31:27;18.95;;;10.77;;
40256;SDS011;25977;45.462;9.210;2022-10-22T08:33:53;16.08;;;11.35;;
40256;SDS011;25977;45.462;9.210;2022-10-22T08:36:19;19.98;;;12.30;;
40256;SDS011;25977;45.462;9.210;2022-10-22T08:38:45;14.82;;;11.50;;
40256;SDS011;25977;45.462;9.210;2022-10-22T08:41:20;19.42;;;11.85;;
40256;SDS011;25977;45.462;9.210;2022-10-22T08:46:50;18.85;;;11.82;;
40256;SDS011;25977;45.462;9.210;2022-10-22T08:49:32;20.98;;;11.63;;
40256;SDS011;25977;45.462;9.210;2022-10-22T08:52:00;21.77;;;11.52;;
40256;SDS011;25977;45.462;9.210;2022-10-22T08:54:35;23.02;;;13.23;;
40256;SDS011;25977;45.462;9.210;2022-10-22T08:59:58;16.90;;;12.35;;
40256;SDS011;25977;45.462;9.210;2022-10-22T09:02:35;18.70;;;11.43;;
40256;SDS011;25977;45.462;9.210;2022-10-22T09:07:54;21.30;;;12.52;;
40256;SDS011;25977;45.462;9.210;2022-10-22T09:10:21;15.73;;;10.68;;
40256;SDS011;25977;45.462;9.210;2022-10-22T09:12:51;22.33;;;12.13;;
40256;SDS011;25977;45.462;9.210;2022-10-22T09:15:17;22.98;;;10.52;;
40256;SDS011;25977;45.462;9.210;2022-10-22T09:17:49;16.58;;;11.48;;
40256;SDS011;25977;45.462;9.210;2022-10-22T09:25:44;15.15;;;10.68;;
40256;SDS011;25977;45.462;9.210;2022-10-22T09:28:11;25.40;;;11.18;;
40256;SDS011;25977;45.462;9.210;2022-10-22T09:30:37;21.05;;;11.43;;
40256;SDS011;25977;45.462;9.210;2022-10-22T09:35:53;25.30;;;14.07;;
40256;SDS011;25977;45.462;9.210;2022-10-22T09:38:22;18.02;;;11.70;;
40256;SDS011;25977;45.462;9.210;2022-10-22T09:40:54;19.98;;;11.45;;
40256;SDS011;25977;45.462;9.210;2022-10-22T09:43:22;18.65;;;12.50;;
40256;SDS011;25977;45.462;9.210;2022-10-22T09:45:54;21.13;;;12.30;;
40256;SDS011;25977;45.462;9.210;2022-10-22T09:48:32;19.08;;;12.98;;
40256;SDS011;25977;45.462;9.210;2022-10-22T09:53:42;18.25;;;13.45;;
40256;SDS011;25977;45.462;9.210;2022-10-22T09:56:17;21.95;;;12.77;;
40256;SDS011;25977;45.462;9.210;2022-10-22T09:58:45;20.33;;;13.02;;
40256;SDS011;25977;45.462;9.210;2022-10-22T10:01:15;26.08;;;13.00;;
40256;SDS011;25977;45.462;9.210;2022-10-22T10:03:51;23.00;;;14.40;;
40256;SDS011;25977;45.462;9.210;2022-10-22T10:06:18;17.45;;;12.95;;
40256;SDS011;25977;45.462;9.210;2022-10-22T10:08:46;17.42;;;12.00;;
40256;SDS011;25977;45.462;9.210;2022-10-22T10:11:18;28.08;;;13.35;;
40256;SDS011;25977;45.462;9.210;2022-10-22T10:14:03;22.77;;;13.07;;
40256;SDS011;25977;45.462;9.210;2022-10-22T10:19:39;20.10;;;13.27;;
40256;SDS011;25977;45.462;9.210;2022-10-22T10:24:48;19.10;;;12.40;;
40256;SDS011;25977;45.462;9.210;2022-10-22T10:27:27;19.48;;;12.90;;
40256;SDS011;25977;45.462;9.210;2022-10-22T10:30:12;20.63;;;13.13;;
40256;SDS011;25977;45.462;9.210;2022-10-22T10:33:16;19.70;;;12.18;;
40256;SDS011;25977;45.462;9.210;2022-10-22T10:41:52;21.35;;;13.13;;
40256;SDS011;25977;45.462;9.210;2022-10-22T10:49:52;19.85;;;14.27;;
40256;SDS011;25977;45.462;9.210;2022-10-22T10:52:29;19.50;;;13.07;;
40256;SDS011;25977;45.462;9.210;2022-10-22T10:55:48;22.63;;;14.07;;
40256;SDS011;25977;45.462;9.210;2022-10-22T11:00:20;26.98;;;13.38;;
40256;SDS011;25977;45.462;9.210;2022-10-22T11:15:44;25.73;;;13.85;;
40256;SDS011;25977;45.462;9.210;2022-10-22T11:18:19;19.40;;;11.45;;
40256;SDS011;25977;45.462;9.210;2022-10-22T11:21:15;20.85;;;13.57;;
40256;SDS011;25977;45.462;9.210;2022-10-22T11:23:54;19.42;;;13.20;;
40256;SDS011;25977;45.462;9.210;2022-10-22T11:29:14;24.15;;;13.32;;
40256;SDS011;25977;45.462;9.210;2022-10-22T11:31:45;25.88;;;14.27;;
40256;SDS011;25977;45.462;9.210;2022-10-22T11:34:32;22.95;;;13.88;;
40256;SDS011;25977;45.462;9.210;2022-10-22T11:37:02;19.40;;;13.48;;
40256;SDS011;25977;45.462;9.210;2022-10-22T11:39:35;22.23;;;14.25;;
40256;SDS011;25977;45.462;9.210;2022-10-22T11:42:11;20.35;;;14.73;;
40256;SDS011;25977;45.462;9.210;2022-10-22T11:47:52;21.27;;;12.15;;
40256;SDS011;25977;45.462;9.210;2022-10-22T11:50:26;25.30;;;13.07;;
40256;SDS011;25977;45.462;9.210;2022-10-22T12:14:16;21.50;;;13.20;;
40256;SDS011;25977;45.462;9.210;2022-10-22T12:16:58;21.00;;;13.88;;
40256;SDS011;25977;45.462;9.210;2022-10-22T12:19:44;26.27;;;13.20;;
40256;SDS011;25977;45.462;9.210;2022-10-22T12:24:45;27.33;;;13.60;;
40256;SDS011;25977;45.462;9.210;2022-10-22T12:27:22;18.02;;;12.27;;
40256;SDS011;25977;45.462;9.210;2022-10-22T12:29:54;28.95;;;12.98;;
40256;SDS011;25977;45.462;9.210;2022-10-22T12:32:21;17.38;;;11.25;;
40256;SDS011;25977;45.462;9.210;2022-10-22T12:34:51;19.10;;;12.43;;
40256;SDS011;25977;45.462;9.210;2022-10-22T12:37:17;19.40;;;13.05;;
40256;SDS011;25977;45.462;9.210;2022-10-22T12:39:45;19.05;;;11.98;;
40256;SDS011;25977;45.462;9.210;2022-10-22T12:42:15;20.60;;;12.20;;
40256;SDS011;25977;45.462;9.210;2022-10-22T12:44:42;17.30;;;12.87;;
40256;SDS011;25977;45.462;9.210;2022-10-22T12:47:15;20.48;;;13.35;;
40256;SDS011;25977;45.462;9.210;2022-10-22T12:49:43;20.63;;;12.50;;
40256;SDS011;25977;45.462;9.210;2022-10-22T12:52:14;26.67;;;14.60;;
40256;SDS011;25977;45.462;9.210;2022-10-22T12:54:44;27.73;;;13.07;;
40256;SDS011;25977;45.462;9.210;2022-10-22T12:57:12;25.95;;;13.15;;
40256;SDS011;25977;45.462;9.210;2022-10-22T12:59:41;19.50;;;13.40;;
40256;SDS011;25977;45.462;9.210;2022-10-22T13:02:23;24.58;;;14.18;;
40256;SDS011;25977;45.462;9.210;2022-10-22T13:07:49;22.30;;;14.52;;
40256;SDS011;25977;45.462;9.210;2022-10-22T13:10:29;19.27;;;14.50;;
40256;SDS011;25977;45.462;9.210;2022-10-22T13:12:57;21.67;;;14.20;;
40256;SDS011;25977;45.462;9.210;2022-10-22T13:18:00;20.98;;;12.38;;
40256;SDS011;25977;45.462;9.210;2022-10-22T13:21:03;17.98;;;12.30;;
40256;SDS011;25977;45.462;9.210;2022-10-22T13:23:31;16.52;;;12.00;;
40256;SDS011;25977;45.462;9.210;2022-10-22T13:28:35;23.90;;;13.15;;
40256;SDS011;25977;45.462;9.210;2022-10-22T13:31:35;23.80;;;13.32;;
40256;SDS011;25977;45.462;9.210;2022-10-22T13:34:01;20.02;;;13.68;;
40256;SDS011;25977;45.462;9.210;2022-10-22T13:36:30;18.02;;;12.00;;
40256;SDS011;25977;45.462;9.210;2022-10-22T13:38:56;18.70;;;13.65;;
40256;SDS011;25977;45.462;9.210;2022-10-22T13:41:23;22.30;;;13.48;;
40256;SDS011;25977;45.462;9.210;2022-10-22T13:43:51;26.25;;;14.30;;
40256;SDS011;25977;45.462;9.210;2022-10-22T13:46:17;21.30;;;14.68;;
40256;SDS011;25977;45.462;9.210;2022-10-22T13:48:43;21.42;;;14.35;;
40256;SDS011;25977;45.462;9.210;2022-10-22T13:51:20;26.42;;;14.38;;
40256;SDS011;25977;45.462;9.210;2022-10-22T13:53:49;27.77;;;15.70;;
40256;SDS011;25977;45.462;9.210;2022-10-22T13:56:17;20.98;;;14.88;;
40256;SDS011;25977;45.462;9.210;2022-10-22T13:58:45;23.13;;;15.23;;
40256;SDS011;25977;45.462;9.210;2022-10-22T14:01:17;23.13;;;14.73;;
40256;SDS011;25977;45.462;9.210;2022-10-22T14:03:43;23.45;;;14.73;;
40256;SDS011;25977;45.462;9.210;2022-10-22T14:06:13;26.35;;;15.13;;
40256;SDS011;25977;45.462;9.210;2022-10-22T14:08:40;26.63;;;13.75;;
40256;SDS011;25977;45.462;9.210;2022-10-22T14:11:11;25.55;;;14.27;;
40256;SDS011;25977;45.462;9.210;2022-10-22T14:13:37;22.85;;;12.77;;
40256;SDS011;25977;45.462;9.210;2022-10-22T14:16:06;17.40;;;12.45;;
40256;SDS011;25977;45.462;9.210;2022-10-22T14:18:40;21.10;;;12.05;;
40256;SDS011;25977;45.462;9.210;2022-10-22T14:21:06;29.95;;;14.40;;
40256;SDS011;25977;45.462;9.210;2022-10-22T14:23:32;18.38;;;12.77;;
40256;SDS011;25977;45.462;9.210;2022-10-22T14:26:00;17.83;;;13.25;;
40256;SDS011;25977;45.462;9.210;2022-10-22T14:28:27;28.30;;;14.13;;
40256;SDS011;25977;45.462;9.210;2022-10-22T14:30:53;21.98;;;13.75;;
40256;SDS011;25977;45.462;9.210;2022-10-22T14:33:29;22.92;;;14.38;;
40256;SDS011;25977;45.462;9.210;2022-10-22T14:35:57;22.92;;;13.60;;
40256;SDS011;25977;45.462;9.210;2022-10-22T14:38:26;22.75;;;13.50;;
40256;SDS011;25977;45.462;9.210;2022-10-22T14:40:52;19.58;;;12.75;;
40256;SDS011;25977;45.462;9.210;2022-10-22T14:45:48;21.75;;;13.65;;
40256;SDS011;25977;45.462;9.210;2022-10-22T14:48:14;20.13;;;13.88;;
40256;SDS011;25977;45.462;9.210;2022-10-22T14:50:41;27.95;;;14.68;;
40256;SDS011;25977;45.462;9.210;2022-10-22T14:53:08;26.95;;;15.13;;
40256;SDS011;25977;45.462;9.210;2022-10-22T14:55:34;22.95;;;14.55;;
40256;SDS011;25977;45.462;9.210;2022-10-22T14:57:59;18.95;;;12.68;;
40256;SDS011;25977;45.462;9.210;2022-10-22T15:00:25;23.98;;;14.05;;
40256;SDS011;25977;45.462;9.210;2022-10-22T15:02:51;23.30;;;13.13;;
40256;SDS011;25977;45.462;9.210;2022-10-22T15:05:16;19.02;;;13.00;;
40256;SDS011;25977;45.462;9.210;2022-10-22T15:07:42;49.75;;;14.95;;
40256;SDS011;25977;45.462;9.210;2022-10-22T15:10:09;21.25;;;14.07;;
40256;SDS011;25977;45.462;9.210;2022-10-22T15:12:35;19.40;;;13.65;;
40256;SDS011;25977;45.462;9.210;2022-10-22T15:15:01;21.30;;;14.27;;
40256;SDS011;25977;45.462;9.210;2022-10-22T15:17:27;28.88;;;14.23;;
40256;SDS011;25977;45.462;9.210;2022-10-22T15:19:52;21.88;;;13.80;;
40256;SDS011;25977;45.462;9.210;2022-10-22T15:22:20;26.85;;;14.98;;
40256;SDS011;25977;45.462;9.210;2022-10-22T15:24:46;23.30;;;14.70;;
40256;SDS011;25977;45.462;9.210;2022-10-22T15:27:13;26.80;;;16.23;;
40256;SDS011;25977;45.462;9.210;2022-10-22T15:29:40;20.25;;;13.15;;
40256;SDS011;25977;45.462;9.210;2022-10-22T15:32:06;20.88;;;13.48;;
40256;SDS011;25977;45.462;9.210;2022-10-22T15:34:35;20.30;;;14.45;;
40256;SDS011;25977;45.462;9.210;2022-10-22T15:40:00;23.38;;;14.77;;
40256;SDS011;25977;45.462;9.210;2022-10-22T15:42:27;18.38;;;14.57;;
40256;SDS011;25977;45.462;9.210;2022-10-22T15:44:56;22.67;;;14.27;;
40256;SDS011;25977;45.462;9.210;2022-10-22T15:47:22;23.70;;;14.65;;
40256;SDS011;25977;45.462;9.210;2022-10-22T15:49:49;27.50;;;14.43;;
40256;SDS011;25977;45.462;9.210;2022-10-22T15:52:15;20.30;;;13.77;;
40256;SDS011;25977;45.462;9.210;2022-10-22T15:54:40;21.17;;;13.93;;
40256;SDS011;25977;45.462;9.210;2022-10-22T15:57:07;28.67;;;15.13;;
40256;SDS011;25977;45.462;9.210;2022-10-22T15:59:34;26.00;;;15.77;;
40256;SDS011;25977;45.462;9.210;2022-10-22T16:02:00;26.13;;;14.82;;
40256;SDS011;25977;45.462;9.210;2022-10-22T16:04:26;26.65;;;16.08;;
40256;SDS011;25977;45.462;9.210;2022-10-22T16:06:52;26.33;;;16.65;;
40256;SDS011;25977;45.462;9.210;2022-10-22T16:09:22;21.98;;;13.93;;
40256;SDS011;25977;45.462;9.210;2022-10-22T16:11:50;25.38;;;17.20;;
40256;SDS011;25977;45.462;9.210;2022-10-22T16:14:17;26.08;;;16.33;;
40256;SDS011;25977;45.462;9.210;2022-10-22T16:16:45;26.00;;;15.45;;
40256;SDS011;25977;45.462;9.210;2022-10-22T16:19:14;24.10;;;16.20;;
40256;SDS011;25977;45.462;9.210;2022-10-22T16:21:41;25.98;;;15.57;;
40256;SDS011;25977;45.462;9.210;2022-10-22T16:24:07;23.98;;;15.48;;
40256;SDS011;25977;45.462;9.210;2022-10-22T16:26:33;31.45;;;16.00;;
40256;SDS011;25977;45.462;9.210;2022-10-22T16:29:00;27.88;;;16.45;;
40256;SDS011;25977;45.462;9.210;2022-10-22T16:31:26;29.02;;;17.27;;
40256;SDS011;25977;45.462;9.210;2022-10-22T16:33:51;30.65;;;18.45;;
40256;SDS011;25977;45.462;9.210;2022-10-22T16:36:18;25.33;;;16.85;;
40256;SDS011;25977;45.462;9.210;2022-10-22T16:38:45;22.80;;;16.35;;